< < Back
Terminal Aerodrome Forecast


Current Version              Previous Versions:   1  2  3  4  5  6  7  8  9  

Terminal Aerodrome Forecast

855
FTUS44 KBMX 272300
TAFTCL
TAF
KTCL 272320Z 2800/2824 25006KT P6SM SCT250
     FM281000 20004KT P6SM VCSH BKN030 BKN070
     FM281300 33012KT P6SM SCT030 BKN070
     FM282100 33012KT P6SM SKC=

Latest METAR

769
SAUS70 KWBC 281200 RRF
MTRTCL
METAR KTCL 281153Z 28006KT 9SM FEW027 27/23 A2998 RMK AO2 SLP148
T02670233 10267 20250 53010


USA.gov is the U.S. government's official web portal to all federal, state and local government web resources and services.